Time;durP1;ratioP1;P1;durP2;ratioP2;P2;SDS_P1;SDS_P2;PMS_P1;PMS_P2;Temp;Humidity;BMP_temperature;BMP_pressure;BME280_temperature;BME280_humidity;BME280_pressure;Samples;Min_cycle;Max_cycle;Signal;HPM_P1;HPM_P2
2023/01/14 00:00:50;;;;;;;13.90;3.28;;;;;;;7.38;76.96;101403.25;5009317;28;20116;-92
2023/01/14 00:03:16;;;;;;;13.27;2.90;;;;;;;7.29;77.29;101403.41;5030396;28;20506;-91
2023/01/14 00:05:41;;;;;;;15.30;4.35;;;;;;;7.16;77.69;101402.75;5029878;28;20030;-91
2023/01/14 00:08:07;;;;;;;18.58;3.85;;;;;;;7.10;77.68;101403.72;5014440;28;20751;-91
2023/01/14 00:10:32;;;;;;;16.20;3.05;;;;;;;7.09;77.71;101415.13;5029984;28;20415;-91
2023/01/14 00:12:57;;;;;;;17.25;3.15;;;;;;;7.13;78.34;101422.09;5012537;28;20052;-91
2023/01/14 00:15:23;;;;;;;15.40;2.60;;;;;;;7.02;77.93;101421.38;5013221;28;20592;-92
2023/01/14 00:17:48;;;;;;;18.50;4.18;;;;;;;7.07;77.94;101437.94;5011962;28;20035;-91
2023/01/14 00:20:14;;;;;;;18.00;3.45;;;;;;;6.96;78.07;101415.34;5027751;28;20084;-91
2023/01/14 00:22:39;;;;;;;16.98;3.03;;;;;;;6.99;78.01;101424.03;5014369;28;20087;-91
2023/01/14 00:25:05;;;;;;;10.60;2.72;;;;;;;7.01;77.88;101438.03;5012762;28;20026;-91
2023/01/14 00:27:30;;;;;;;14.45;2.90;;;;;;;7.09;77.91;101440.56;5012430;28;20040;-92
2023/01/14 00:29:55;;;;;;;15.48;3.10;;;;;;;6.97;77.72;101438.13;5030597;28;20436;-92
2023/01/14 00:32:21;;;;;;;14.65;3.55;;;;;;;6.98;77.91;101419.69;5032815;28;20035;-91
2023/01/14 00:34:46;;;;;;;22.23;3.70;;;;;;;7.00;77.76;101435.44;5003225;28;20048;-91
2023/01/14 00:37:11;;;;;;;20.17;3.88;;;;;;;7.03;77.50;101425.72;5028405;28;20420;-91
2023/01/14 00:39:37;;;;;;;15.07;3.65;;;;;;;6.97;78.04;101419.72;5031131;28;20661;-91
2023/01/14 00:42:02;;;;;;;15.30;3.58;;;;;;;6.83;78.29;101414.69;5012492;28;20025;-92
2023/01/14 00:44:27;;;;;;;18.63;4.03;;;;;;;6.86;78.68;101433.91;5029643;28;20390;-92
2023/01/14 00:46:53;;;;;;;15.80;3.15;;;;;;;6.75;78.28;101429.69;5027356;28;20059;-91
2023/01/14 00:49:21;;;;;;;19.65;4.55;;;;;;;6.75;78.59;101433.16;5028017;28;20017;-91
2023/01/14 00:51:46;;;;;;;17.63;3.38;;;;;;;6.74;78.84;101438.47;5027548;28;20045;-92
2023/01/14 00:54:12;;;;;;;23.02;4.07;;;;;;;6.74;79.05;101436.69;5026914;28;20503;-93
2023/01/14 00:56:38;;;;;;;20.92;3.70;;;;;;;6.74;79.49;101435.84;5004345;28;20032;-91
2023/01/14 00:59:03;;;;;;;17.08;3.60;;;;;;;6.77;79.57;101418.28;5008855;28;20025;-92
2023/01/14 01:01:29;;;;;;;14.35;3.65;;;;;;;6.60;79.68;101412.38;5033280;28;20032;-92
2023/01/14 01:03:56;;;;;;;17.85;3.40;;;;;;;6.67;80.08;101431.53;5027405;28;20038;-92
2023/01/14 01:06:23;;;;;;;21.45;4.40;;;;;;;6.75;80.01;101430.53;5006928;28;20473;-92
2023/01/14 01:08:50;;;;;;;18.80;3.40;;;;;;;6.88;79.66;101436.50;5011145;28;20021;-91
2023/01/14 01:11:17;;;;;;;33.97;4.47;;;;;;;6.74;79.81;101415.69;5026159;28;20389;-92
2023/01/14 01:13:43;;;;;;;26.17;4.05;;;;;;;6.86;79.48;101426.00;5007240;28;20021;-92
2023/01/14 01:16:14;;;;;;;15.90;3.80;;;;;;;6.83;79.61;101433.94;5004743;28;20029;-91
2023/01/14 01:18:40;;;;;;;19.20;3.95;;;;;;;6.95;79.57;101445.13;5023209;28;20111;-92
2023/01/14 01:21:12;;;;;;;21.23;4.13;;;;;;;6.77;80.34;101422.66;5029557;28;20041;-92
2023/01/14 01:23:41;;;;;;;18.48;3.63;;;;;;;6.88;79.79;101428.59;5012159;28;20033;-91
2023/01/14 01:26:10;;;;;;;24.05;4.70;;;;;;;6.93;79.86;101439.91;5009993;28;20558;-92
2023/01/14 01:28:35;;;;;;;22.85;3.60;;;;;;;6.83;79.70;101425.19;5018994;28;20080;-91
2023/01/14 01:31:06;;;;;;;27.58;5.28;;;;;;;6.91;79.79;101436.47;5025605;28;20029;-91
2023/01/14 01:33:32;;;;;;;24.27;4.30;;;;;;;6.82;79.96;101421.69;5026872;28;20063;-92
2023/01/14 01:36:04;;;;;;;32.88;4.32;;;;;;;6.86;79.68;101431.28;5028900;28;20029;-91
2023/01/14 01:38:30;;;;;;;22.10;5.00;;;;;;;6.87;80.19;101435.63;5026603;28;20029;-92
2023/01/14 01:40:56;;;;;;;16.15;3.35;;;;;;;6.85;80.28;101439.16;5008174;28;20021;-91
2023/01/14 01:43:28;;;;;;;24.13;4.55;;;;;;;6.77;80.21;101428.78;5027791;28;20057;-91
2023/01/14 01:45:56;;;;;;;13.77;3.53;;;;;;;6.81;80.06;101425.22;5006234;28;20021;-91
2023/01/14 01:48:43;;;;;;;19.48;4.53;;;;;;;6.79;80.32;101423.50;5028980;28;20040;-91
2023/01/14 01:51:24;;;;;;;23.63;3.53;;;;;;;6.76;80.49;101420.91;5009681;28;20025;-91
2023/01/14 01:53:52;;;;;;;16.90;3.65;;;;;;;6.73;80.58;101416.56;5006554;28;20025;-92
2023/01/14 01:56:22;;;;;;;20.73;4.10;;;;;;;6.75;80.32;101429.69;5027944;28;20046;-92
2023/01/14 01:58:49;;;;;;;20.33;3.78;;;;;;;6.78;80.29;101438.41;5009849;28;20036;-92
2023/01/14 02:01:15;;;;;;;27.80;4.55;;;;;;;6.75;80.41;101425.28;5008962;28;20116;-92
2023/01/14 02:03:42;;;;;;;16.42;3.25;;;;;;;6.77;80.55;101441.06;5030032;28;20029;-91
2023/01/14 02:06:08;;;;;;;26.70;4.43;;;;;;;6.81;80.54;101432.25;5010406;28;20164;-92
2023/01/14 02:08:36;;;;;;;21.35;3.75;;;;;;;6.71;80.64;101428.00;5025003;28;20033;-91
2023/01/14 02:11:13;;;;;;;28.35;4.15;;;;;;;6.75;80.85;101427.06;5027058;28;20397;-91
2023/01/14 02:13:53;;;;;;;26.60;5.05;;;;;;;6.73;80.79;101420.97;5025956;28;20514;-92
2023/01/14 02:17:05;;;;;;;22.33;3.83;;;;;;;6.65;81.12;101400.91;5008070;28;20021;-91
2023/01/14 02:19:30;;;;;;;16.27;4.20;;;;;;;6.68;81.15;101401.78;5002474;28;20485;-92
2023/01/14 02:22:31;;;;;;;19.53;5.60;;;;;;;6.69;80.97;101393.00;5027486;28;20323;-91
2023/01/14 02:25:31;;;;;;;23.40;4.30;;;;;;;6.68;81.19;101386.00;5020105;28;20308;-92
2023/01/14 02:28:27;;;;;;;17.77;3.72;;;;;;;6.68;81.37;101370.25;5009297;28;20025;-90
2023/01/14 02:31:12;;;;;;;23.98;4.00;;;;;;;6.74;81.07;101370.16;5004534;28;20555;-91
2023/01/14 02:34:05;;;;;;;25.08;3.63;;;;;;;6.76;80.91;101360.47;5007197;28;20025;-91
2023/01/14 02:36:45;;;;;;;22.50;3.85;;;;;;;6.69;81.12;101343.94;5028373;28;20412;-92
2023/01/14 02:39:14;;;;;;;29.67;4.35;;;;;;;6.60;81.38;101344.09;5004323;28;20513;-92
2023/01/14 02:44:39;;;;;;;21.05;4.55;;;;;;;6.57;81.79;101329.22;5002787;28;20053;-92
2023/01/14 02:47:08;;;;;;;25.60;3.60;;;;;;;6.60;82.52;101333.56;5001731;28;20414;-92
2023/01/14 02:49:39;;;;;;;23.73;3.63;;;;;;;6.59;81.81;101334.47;4982698;28;20479;-91
2023/01/14 02:52:06;;;;;;;24.13;4.75;;;;;;;6.62;81.97;101342.28;4986592;28;20101;-92
2023/01/14 02:54:31;;;;;;;23.90;3.47;;;;;;;6.58;82.15;101335.38;5005612;28;20029;-92
2023/01/14 02:57:06;;;;;;;28.55;4.38;;;;;;;6.60;82.29;101328.31;4989095;28;20501;-91
2023/01/14 02:59:41;;;;;;;25.52;4.22;;;;;;;6.59;82.30;101324.84;4987945;28;20034;-91
2023/01/14 03:02:42;;;;;;;22.35;3.53;;;;;;;6.59;82.12;101321.34;5007549;28;20062;-92
2023/01/14 03:05:16;;;;;;;26.35;3.83;;;;;;;6.65;81.94;101322.09;4989161;28;20077;-92
2023/01/14 03:07:57;;;;;;;30.50;4.43;;;;;;;6.64;82.23;101330.00;5010146;28;20124;-92
2023/01/14 03:10:52;;;;;;;24.60;3.95;;;;;;;6.62;82.27;101323.91;5007607;28;20044;-92
2023/01/14 03:13:38;;;;;;;22.50;4.07;;;;;;;6.59;82.21;101314.31;4990385;28;20492;-92
2023/01/14 03:16:30;;;;;;;24.85;3.95;;;;;;;6.55;82.81;101303.88;4997277;28;20034;-91
2023/01/14 03:19:15;;;;;;;25.80;3.25;;;;;;;6.61;82.27;101295.91;4985121;28;20121;-91
2023/01/14 03:21:46;;;;;;;23.27;4.43;;;;;;;6.64;82.55;101299.34;4992247;28;20088;-92
2023/01/14 03:24:22;;;;;;;22.50;3.67;;;;;;;6.65;82.59;101287.94;4985229;28;20030;-92
2023/01/14 03:26:50;;;;;;;20.77;3.53;;;;;;;6.63;82.86;101292.38;4988725;28;20022;-92
2023/01/14 03:29:22;;;;;;;31.45;3.30;;;;;;;6.55;82.85;101278.47;4998300;28;20038;-91
2023/01/14 03:31:52;;;;;;;;;;;;;;;6.76;82.27;101300.03;5006456;28;20052;-91
2023/01/14 03:34:23;;;;;;;17.63;3.80;;;;;;;6.62;82.79;101280.13;4997207;28;20385;-91
2023/01/14 03:36:51;;;;;;;19.35;3.58;;;;;;;6.72;82.61;101287.84;4986371;28;20117;-91
2023/01/14 03:39:22;;;;;;;24.10;3.88;;;;;;;6.71;82.66;101272.97;5013133;28;20036;-91
2023/01/14 03:44:42;;;;;;;23.48;3.33;;;;;;;6.79;82.69;101278.97;5029099;28;20059;-92
2023/01/14 03:47:09;;;;;;;19.95;3.17;;;;;;;6.82;82.65;101279.78;5023618;28;20493;-90
2023/01/14 03:49:35;;;;;;;23.33;3.90;;;;;;;6.79;82.52;101271.06;5011869;28;20385;-93
2023/01/14 03:52:07;;;;;;;27.08;4.05;;;;;;;6.81;82.84;101280.69;5013911;28;20057;-92
2023/01/14 03:54:48;;;;;;;24.48;3.75;;;;;;;6.91;82.55;101276.13;5010542;28;20040;-91
2023/01/14 03:57:35;;;;;;;17.08;3.17;;;;;;;6.90;82.85;101263.84;5008442;28;20037;-92
2023/01/14 04:00:10;;;;;;;17.00;3.20;;;;;;;6.86;82.66;101251.69;5025988;28;20026;-91
2023/01/14 04:02:37;;;;;;;14.77;3.17;;;;;;;6.94;82.80;101254.16;5008491;28;20067;-91
2023/01/14 04:05:04;;;;;;;16.75;3.25;;;;;;;6.88;82.68;101242.00;5009022;28;20026;-92
2023/01/14 04:07:29;;;;;;;18.95;3.90;;;;;;;6.96;82.60;101244.50;5029329;28;20037;-91
2023/01/14 04:09:54;;;;;;;18.80;3.20;;;;;;;6.92;82.29;101222.66;5006698;28;20587;-92
2023/01/14 04:12:20;;;;;;;22.15;4.30;;;;;;;6.95;82.72;101234.84;5004679;28;20033;-92
2023/01/14 04:17:29;;;;;;;23.20;4.28;;;;;;;6.96;82.34;101208.56;5028770;28;20119;-92
2023/01/14 04:19:54;;;;;;;15.90;3.10;;;;;;;7.02;82.18;101205.81;5016516;28;20458;-92
2023/01/14 04:22:19;;;;;;;12.02;3.63;;;;;;;7.04;82.12;101213.66;5011871;28;20033;-92
2023/01/14 04:24:45;;;;;;;21.70;3.30;;;;;;;6.89;82.55;101193.78;5025707;28;20028;-91
2023/01/14 04:27:10;;;;;;;19.10;3.20;;;;;;;6.90;82.67;101190.25;5038504;28;20029;-92
2023/01/14 04:29:35;;;;;;;20.42;3.97;;;;;;;6.90;82.78;101198.16;5019510;28;20030;-92
2023/01/14 04:32:00;;;;;;;16.80;3.13;;;;;;;6.90;82.52;101191.16;5004566;28;20035;-92
2023/01/14 04:34:26;;;;;;;17.75;3.08;;;;;;;6.90;82.62;101185.91;5006367;28;20014;-92
2023/01/14 04:36:51;;;;;;;15.55;3.22;;;;;;;6.81;82.88;101170.31;5017766;28;20461;-91
2023/01/14 04:39:16;;;;;;;22.45;3.22;;;;;;;6.79;82.69;101171.22;5014104;28;20025;-91
2023/01/14 04:44:25;;;;;;;22.65;3.65;;;;;;;6.78;82.79;101164.25;5026080;28;20044;-91
2023/01/14 04:46:50;;;;;;;17.95;3.20;;;;;;;6.66;82.98;101154.81;5009150;28;20017;-92
2023/01/14 04:49:17;;;;;;;16.80;3.22;;;;;;;6.55;83.28;101165.53;5032427;28;20473;-91
2023/01/14 04:51:42;;;;;;;15.13;3.30;;;;;;;6.47;83.62;101172.69;5012043;28;20124;-92
2023/01/14 04:54:07;;;;;;;20.60;3.15;;;;;;;6.56;83.62;101163.78;5032103;28;20037;-91
2023/01/14 04:56:33;;;;;;;23.42;3.88;;;;;;;6.52;83.95;101152.44;5009439;28;20029;-91
2023/01/14 04:59:01;;;;;;;21.13;3.50;;;;;;;6.65;83.03;101148.69;5008298;28;20026;-91
2023/01/14 05:01:27;;;;;;;16.10;2.83;;;;;;;6.73;82.98;101150.31;5003457;28;20100;-92
2023/01/14 05:03:54;;;;;;;17.65;3.33;;;;;;;6.75;83.24;101151.16;5033505;28;20473;-92
2023/01/14 05:06:20;;;;;;;25.13;3.95;;;;;;;6.71;83.01;101141.59;5011589;28;20029;-93
2023/01/14 05:08:47;;;;;;;16.92;3.13;;;;;;;6.74;82.81;101144.16;5022051;28;20041;-92
2023/01/14 05:11:13;;;;;;;16.77;3.47;;;;;;;6.88;82.24;101131.63;5030349;28;20181;-92
2023/01/14 05:13:38;;;;;;;19.15;3.67;;;;;;;6.76;82.31;101119.59;5012977;28;20508;-90
2023/01/14 05:16:04;;;;;;;20.20;4.05;;;;;;;6.79;82.37;101121.28;5004771;28;20034;-91
2023/01/14 05:18:29;;;;;;;15.13;3.03;;;;;;;6.78;82.28;101122.19;5018601;28;20392;-92
2023/01/14 05:20:54;;;;;;;16.10;3.10;;;;;;;6.80;82.18;101126.50;5011505;28;20048;-92
2023/01/14 05:23:20;;;;;;;18.30;3.10;;;;;;;6.87;81.75;101124.63;5011684;28;20056;-92
2023/01/14 05:25:45;;;;;;;12.65;3.08;;;;;;;6.88;81.86;101113.22;5010534;28;20119;-92
2023/01/14 05:28:13;;;;;;;19.02;3.40;;;;;;;6.90;81.90;101114.94;5021870;28;20097;-94
2023/01/14 05:30:39;;;;;;;21.33;4.38;;;;;;;6.82;81.48;101097.59;5021996;28;20523;-92
2023/01/14 05:33:04;;;;;;;15.93;3.08;;;;;;;6.86;81.57;101078.25;5003389;28;20022;-91
2023/01/14 05:35:31;;;;;;;19.38;3.42;;;;;;;6.90;81.45;101088.66;5028450;28;20030;-92
2023/01/14 05:37:56;;;;;;;26.08;4.03;;;;;;;6.90;81.66;101067.63;5026953;28;20057;-92
2023/01/14 05:40:21;;;;;;;16.35;2.92;;;;;;;6.91;81.39;101057.97;5032711;28;20119;-91
2023/01/14 05:45:49;;;;;;;12.40;2.92;;;;;;;6.90;81.69;101040.44;5024822;28;20044;-92
2023/01/14 05:48:24;;;;;;;19.98;3.90;;;;;;;6.93;81.05;101029.88;5023655;28;20029;-92
2023/01/14 05:50:55;;;;;;;20.52;3.35;;;;;;;6.99;81.22;101037.63;5011101;28;20038;-91
2023/01/14 05:53:21;;;;;;;14.60;3.00;;;;;;;7.04;80.91;101041.03;5027477;28;20041;-92
2023/01/14 05:55:47;;;;;;;12.30;3.38;;;;;;;7.03;81.27;101034.03;5009702;28;20396;-92
2023/01/14 05:58:13;;;;;;;19.75;3.13;;;;;;;7.07;80.83;101019.94;5007474;28;20080;-91
2023/01/14 06:06:22;;;;;;;16.33;3.10;;;;;;;7.16;80.12;101003.06;5024421;28;20048;-93
2023/01/14 06:08:53;;;;;;;15.38;3.42;;;;;;;7.19;79.88;101005.66;5029465;28;20033;-91
2023/01/14 06:11:20;;;;;;;15.20;2.42;;;;;;;7.24;79.89;100989.75;5009175;28;20033;-90
2023/01/14 06:13:50;;;;;;;18.95;3.03;;;;;;;7.13;79.84;100988.25;5010607;28;20033;-92
2023/01/14 06:16:16;;;;;;;20.55;3.55;;;;;;;7.17;79.44;100970.63;5017829;28;20473;-92
2023/01/14 06:18:42;;;;;;;14.60;2.97;;;;;;;7.29;79.16;100972.09;5012417;28;20025;-92
2023/01/14 06:21:10;;;;;;;18.92;2.88;;;;;;;7.30;78.99;100963.31;5010838;28;20037;-91
2023/01/14 06:23:36;;;;;;;15.60;3.28;;;;;;;7.23;79.61;100945.94;5029716;28;20024;-92
2023/01/14 06:26:01;;;;;;;14.85;3.25;;;;;;;7.34;79.21;100960.56;5011163;28;20033;-92
2023/01/14 06:28:28;;;;;;;13.70;3.33;;;;;;;7.35;79.96;100959.66;5010790;28;20030;-92
2023/01/14 06:30:54;;;;;;;9.35;2.22;;;;;;;7.41;79.85;100961.25;5029238;28;20419;-94
2023/01/14 06:33:20;;;;;;;20.75;3.92;;;;;;;7.28;80.17;100937.06;5012832;28;20058;-92
2023/01/14 06:35:46;;;;;;;15.70;2.75;;;;;;;7.37;80.18;100931.56;5029233;28;20060;-91
2023/01/14 06:38:12;;;;;;;21.00;3.00;;;;;;;7.41;80.57;100924.44;5010460;28;20135;-91
2023/01/14 06:40:38;;;;;;;17.65;4.03;;;;;;;7.25;81.23;100917.84;5026773;28;20037;-91
2023/01/14 06:43:05;;;;;;;14.32;2.85;;;;;;;7.28;81.22;100917.78;5029294;28;20070;-91
2023/01/14 06:45:30;;;;;;;10.32;2.15;;;;;;;7.32;81.57;100898.38;5024310;28;20033;-92
2023/01/14 06:47:55;;;;;;;14.60;2.70;;;;;;;7.32;81.92;100915.03;5023828;28;20041;-92
2023/01/14 06:50:21;;;;;;;13.10;3.13;;;;;;;7.18;81.95;100904.00;5027023;28;20037;-92
2023/01/14 06:52:48;;;;;;;14.23;2.97;;;;;;;7.25;82.26;100892.41;5026788;28;20026;-92
2023/01/14 06:55:14;;;;;;;13.90;2.72;;;;;;;7.25;82.99;100870.53;5006456;28;20473;-91
2023/01/14 06:57:42;;;;;;;12.27;2.92;;;;;;;7.22;82.93;100871.44;5026209;28;20040;-91
2023/01/14 07:00:08;;;;;;;21.15;3.38;;;;;;;7.20;84.01;100869.78;5007006;28;20041;-91
2023/01/14 07:02:34;;;;;;;13.82;2.38;;;;;;;7.22;84.81;100870.59;5017200;28;20048;-91
2023/01/14 07:04:59;;;;;;;18.20;3.78;;;;;;;7.22;85.20;100866.19;5027280;28;20026;-90
2023/01/14 07:07:24;;;;;;;14.90;2.88;;;;;;;7.20;85.25;100859.25;5003227;28;20435;-92
2023/01/14 07:09:49;;;;;;;15.00;3.22;;;;;;;7.19;85.26;100840.00;5005736;28;20108;-91
2023/01/14 07:12:15;;;;;;;14.32;2.78;;;;;;;7.22;85.68;100858.31;5024269;28;20036;-91
2023/01/14 07:14:40;;;;;;;23.48;2.85;;;;;;;7.15;86.21;100838.34;5006966;28;20025;-90
2023/01/14 07:17:05;;;;;;;13.52;2.65;;;;;;;7.15;86.75;100839.22;5026655;28;20284;-91
2023/01/14 07:19:31;;;;;;;13.90;2.95;;;;;;;7.20;86.72;100820.69;5007879;28;20386;-91
2023/01/14 07:21:56;;;;;;;11.88;2.33;;;;;;;7.12;87.60;100813.00;5024123;28;20072;-91
2023/01/14 07:24:21;;;;;;;15.07;2.60;;;;;;;7.18;88.37;100811.09;5027667;28;20032;-91
2023/01/14 07:26:46;;;;;;;14.82;2.55;;;;;;;7.17;87.86;100799.72;5007363;28;20049;-91
2023/01/14 07:29:12;;;;;;;15.88;3.15;;;;;;;7.12;88.28;100798.97;5026224;28;20033;-91
2023/01/14 07:31:38;;;;;;;16.00;2.92;;;;;;;7.16;88.40;100796.22;5025875;28;20068;-91
2023/01/14 07:34:03;;;;;;;10.68;2.45;;;;;;;7.10;88.40;100772.75;5024457;28;20060;-91
2023/01/14 07:36:28;;;;;;;17.00;2.70;;;;;;;7.20;88.42;100791.75;5004697;28;20025;-91
2023/01/14 07:38:54;;;;;;;18.70;3.25;;;;;;;7.14;88.93;100782.28;5011624;28;20043;-90
2023/01/14 07:41:20;;;;;;;15.95;2.90;;;;;;;7.10;89.21;100766.63;5009384;28;20040;-91
2023/01/14 07:43:45;;;;;;;8.02;2.60;;;;;;;7.14;89.31;100773.53;5024783;28;20136;-91
2023/01/14 07:46:11;;;;;;;10.10;3.03;;;;;;;7.14;89.63;100753.38;5026906;28;20112;-91
2023/01/14 07:48:37;;;;;;;12.20;2.80;;;;;;;7.16;89.65;100750.69;5024921;28;20392;-91
2023/01/14 07:51:03;;;;;;;11.05;2.75;;;;;;;7.18;90.00;100740.09;5009106;28;20361;-92
2023/01/14 07:53:29;;;;;;;9.90;2.80;;;;;;;7.23;90.31;100738.22;5026089;28;20036;-91
2023/01/14 07:55:55;;;;;;;8.82;2.30;;;;;;;7.24;90.20;100725.03;5027133;28;20549;-91
2023/01/14 07:58:21;;;;;;;18.02;3.60;;;;;;;7.27;90.02;100732.81;5025355;28;20033;-91
2023/01/14 08:00:47;;;;;;;9.35;2.33;;;;;;;7.23;90.42;100694.41;5009426;28;20025;-91
2023/01/14 08:03:12;;;;;;;10.52;2.35;;;;;;;7.28;90.40;100710.91;5021294;28;20021;-91
2023/01/14 08:05:38;;;;;;;11.82;2.70;;;;;;;7.40;89.88;100701.78;5024724;28;20030;-91
2023/01/14 08:08:03;;;;;;;8.52;2.17;;;;;;;7.48;89.51;100684.00;5005421;28;20098;-91
2023/01/14 08:10:28;;;;;;;12.32;2.55;;;;;;;7.37;89.83;100651.94;5025576;28;20029;-90
2023/01/14 08:12:53;;;;;;;10.35;2.22;;;;;;;7.47;90.07;100658.63;5023311;28;20065;-91
2023/01/14 08:15:19;;;;;;;11.57;2.38;;;;;;;7.39;90.32;100644.84;5009367;28;20096;-90
2023/01/14 08:17:44;;;;;;;10.90;2.50;;;;;;;7.51;90.86;100662.91;5007667;28;20039;-91
2023/01/14 08:20:10;;;;;;;7.82;2.55;;;;;;;7.44;90.95;100634.19;5026203;28;20112;-92
2023/01/14 08:22:35;;;;;;;7.13;2.33;;;;;;;7.46;90.21;100625.34;5025600;28;20026;-92
2023/01/14 08:25:01;;;;;;;7.72;2.33;;;;;;;7.45;90.64;100631.50;5028370;28;20380;-91
2023/01/14 08:27:29;;;;;;;5.38;1.98;;;;;;;7.53;90.45;100621.59;5029938;28;20076;-91
2023/01/14 08:29:55;;;;;;;6.28;2.45;;;;;;;7.56;90.84;100600.47;5029717;28;20021;-92
2023/01/14 08:32:22;;;;;;;8.57;1.83;;;;;;;7.63;90.30;100596.72;5030915;28;20051;-92
2023/01/14 08:34:47;;;;;;;5.20;1.85;;;;;;;7.64;90.18;100606.31;5030124;28;20040;-91
2023/01/14 08:37:13;;;;;;;6.40;1.85;;;;;;;7.70;90.07;100586.03;5010269;28;20034;-91
2023/01/14 08:39:38;;;;;;;6.30;2.50;;;;;;;7.66;89.81;100572.94;5010051;28;20065;-91
2023/01/14 08:42:03;;;;;;;7.07;2.17;;;;;;;7.66;89.99;100559.81;5009766;28;20477;-91
2023/01/14 08:44:29;;;;;;;3.97;1.60;;;;;;;7.76;90.04;100565.63;5023066;28;20030;-91
2023/01/14 08:46:54;;;;;;;2.53;1.20;;;;;;;7.78;89.83;100555.88;5008963;28;20032;-91
2023/01/14 08:49:19;;;;;;;6.85;1.88;;;;;;;7.83;89.56;100547.84;5028334;28;20029;-92
2023/01/14 08:51:45;;;;;;;5.75;1.83;;;;;;;7.80;89.62;100522.50;5028547;28;20053;-91
2023/01/14 08:54:10;;;;;;;2.70;1.30;;;;;;;7.99;89.73;100537.66;5026629;28;20044;-90
2023/01/14 08:56:35;;;;;;;4.25;1.50;;;;;;;7.95;89.29;100531.66;5027251;28;20029;-91
2023/01/14 08:59:01;;;;;;;11.90;1.70;;;;;;;8.01;89.30;100530.56;5006517;28;20508;-91
2023/01/14 09:01:27;;;;;;;4.50;1.52;;;;;;;7.95;89.16;100496.56;5009029;28;20052;-91
2023/01/14 09:03:57;;;;;;;5.55;1.70;;;;;;;8.02;89.31;100487.53;5009628;28;20041;-90
2023/01/14 09:06:22;;;;;;;3.90;1.73;;;;;;;7.79;91.29;100477.84;5025654;28;20462;-92
2023/01/14 09:17:07;;;;;;;5.65;1.80;;;;;;;7.91;91.47;100459.81;5023052;28;20080;-90
2023/01/14 09:19:36;;;;;;;6.60;1.50;;;;;;;7.99;91.65;100464.81;5002352;28;20257;-90
2023/01/14 09:22:02;;;;;;;7.70;1.90;;;;;;;8.03;91.60;100468.22;5025893;28;20044;-91
2023/01/14 09:24:27;;;;;;;11.18;2.03;;;;;;;8.01;91.69;100449.81;5028236;28;20100;-91
2023/01/14 09:26:53;;;;;;;6.40;1.85;;;;;;;8.08;91.39;100443.44;5025572;28;20344;-91
2023/01/14 09:29:18;;;;;;;4.63;1.45;;;;;;;8.17;91.12;100431.72;5027217;28;20033;-91
2023/01/14 09:31:43;;;;;;;6.95;2.45;;;;;;;8.12;91.28;100429.25;5023170;28;20754;-91
2023/01/14 09:34:09;;;;;;;7.88;1.92;;;;;;;8.20;91.27;100444.75;5024657;28;20033;-90
2023/01/14 09:36:34;;;;;;;6.20;1.63;;;;;;;8.27;91.27;100419.06;5025302;28;20504;-90
2023/01/14 09:38:59;;;;;;;7.57;1.83;;;;;;;8.21;91.73;100401.72;5034508;28;20101;-91
2023/01/14 09:41:31;;;;;;;5.07;1.60;;;;;;;8.25;91.80;100405.06;5025203;28;20025;-91
2023/01/14 09:43:57;;;;;;;;;;;;;;;8.28;90.80;100392.66;5008064;28;20653;-91
2023/01/14 09:46:27;;;;;;;6.82;1.48;;;;;;;8.28;91.29;100397.91;5025158;28;19913;-91
2023/01/14 09:48:55;;;;;;;10.27;2.30;;;;;;;8.27;91.66;100392.72;5004960;28;20029;-91
2023/01/14 09:52:06;;;;;;;5.75;1.88;;;;;;;8.37;91.80;100380.94;5006345;28;20038;-91
2023/01/14 09:54:50;;;;;;;5.90;1.58;;;;;;;8.35;91.99;100382.75;5025768;28;20029;-91
2023/01/14 09:57:44;;;;;;;5.53;1.50;;;;;;;8.38;91.73;100377.38;5017577;28;20061;-90
2023/01/14 10:00:45;;;;;;;6.25;1.63;;;;;;;8.47;91.87;100377.03;4994376;28;20480;-91
2023/01/14 10:03:37;;;;;;;10.82;1.83;;;;;;;8.45;91.67;100347.28;5000893;28;20068;-91
2023/01/14 10:06:09;;;;;;;10.70;2.20;;;;;;;8.46;91.45;100353.41;5023569;28;20551;-91
2023/01/14 10:08:40;;;;;;;10.77;2.65;;;;;;;8.34;93.22;100326.56;5024421;28;20493;-92
2023/01/14 10:11:07;;;;;;;3.00;1.63;;;;;;;8.46;93.07;100325.28;5027027;28;20033;-91
2023/01/14 10:13:37;;;;;;;3.28;1.73;;;;;;;8.50;92.49;100328.66;5026340;28;20029;-91
2023/01/14 10:16:26;;;;;;;8.90;1.48;;;;;;;8.64;92.64;100326.31;5026203;28;20436;-91
2023/01/14 10:18:55;;;;;;;7.20;2.85;;;;;;;8.57;92.74;100287.94;5017681;28;20033;-91
2023/01/14 10:21:46;;;;;;;8.45;2.00;;;;;;;8.54;92.88;100280.19;5007637;28;20095;-91
2023/01/14 10:24:13;;;;;;;7.53;2.30;;;;;;;8.66;93.08;100280.53;5027754;28;20033;-91
2023/01/14 10:26:40;;;;;;;7.43;1.67;;;;;;;8.69;93.25;100282.19;5026858;28;20053;-91
2023/01/14 10:29:18;;;;;;;6.20;1.88;;;;;;;8.66;93.32;100263.84;5027351;28;20089;-91
2023/01/14 10:31:51;;;;;;;4.05;1.52;;;;;;;8.86;92.56;100253.34;5026760;28;20289;-90
2023/01/14 10:34:26;;;;;;;5.65;1.50;;;;;;;8.80;92.58;100248.31;5008354;28;20035;-91
2023/01/14 10:36:52;;;;;;;3.30;2.30;;;;;;;8.90;92.84;100236.47;4998946;28;20034;-91
2023/01/14 10:39:17;;;;;;;3.40;1.35;;;;;;;8.88;92.50;100240.09;5003765;28;20029;-91
2023/01/14 10:41:48;;;;;;;2.30;1.23;;;;;;;8.90;92.33;100223.28;5026564;28;20092;-90
2023/01/14 10:44:23;;;;;;;5.53;1.80;;;;;;;9.01;92.08;100211.44;5018873;28;20140;-91
2023/01/14 10:46:51;;;;;;;7.13;1.42;;;;;;;9.03;92.32;100220.97;5004537;28;20026;-91
2023/01/14 10:49:24;;;;;;;5.55;1.83;;;;;;;8.97;92.36;100189.63;5025857;28;20366;-91
2023/01/14 10:51:50;;;;;;;5.07;1.90;;;;;;;8.99;92.84;100193.03;5008996;28;20200;-91
2023/01/14 10:54:18;;;;;;;6.72;1.50;;;;;;;9.01;93.61;100177.16;5023257;28;20733;-91
2023/01/14 10:56:48;;;;;;;7.35;1.67;;;;;;;9.01;93.51;100178.00;5029130;28;20030;-91
2023/01/14 10:59:38;;;;;;;7.80;1.45;;;;;;;8.96;93.56;100194.97;5025276;28;20120;-90
2023/01/14 11:02:04;;;;;;;6.97;1.90;;;;;;;8.95;93.35;100154.53;5006543;28;20110;-90
2023/01/14 11:04:33;;;;;;;3.75;1.42;;;;;;;9.05;93.00;100160.28;5007490;28;20489;-91
2023/01/14 11:07:08;;;;;;;5.40;1.55;;;;;;;9.17;92.92;100146.53;5026642;28;20021;-91
2023/01/14 11:09:34;;;;;;;5.13;1.33;;;;;;;9.08;93.31;100123.22;5022400;28;20033;-91
2023/01/14 11:11:59;;;;;;;5.72;1.25;;;;;;;9.16;92.45;100123.72;5020375;28;20065;-91
2023/01/14 11:14:24;;;;;;;2.10;1.23;;;;;;;9.22;93.40;100123.44;5005280;28;20160;-91
2023/01/14 11:16:50;;;;;;;6.77;1.40;;;;;;;9.25;93.04;100115.38;5008331;28;20033;-91
2023/01/14 11:19:15;;;;;;;3.22;1.70;;;;;;;9.21;93.21;100116.44;5021282;28;20315;-91
2023/01/14 11:22:01;;;;;;;4.32;1.17;;;;;;;9.36;93.10;100121.00;5019676;28;20025;-90
2023/01/14 11:24:42;;;;;;;4.25;1.45;;;;;;;9.41;92.32;100097.06;5025117;28;20037;-91
2023/01/14 11:27:23;;;;;;;2.88;1.02;;;;;;;9.34;92.20;100096.50;5003697;28;20395;-92
2023/01/14 11:29:59;;;;;;;5.20;1.20;;;;;;;9.37;93.68;100096.38;5020028;28;20029;-92
2023/01/14 11:32:49;;;;;;;2.67;1.45;;;;;;;9.38;92.56;100068.19;5022250;28;20025;-91
2023/01/14 11:35:19;;;;;;;4.72;1.27;;;;;;;9.44;92.89;100083.72;5006183;28;20033;-91
2023/01/14 11:37:48;;;;;;;2.83;1.27;;;;;;;9.37;93.70;100063.81;5004899;28;21540;-91
2023/01/14 11:43:20;;;;;;;2.70;1.20;;;;;;;9.29;93.52;100061.56;5022391;28;20108;-91
2023/01/14 11:45:46;;;;;;;4.22;1.52;;;;;;;9.41;93.01;100057.47;5005605;28;20022;-91
2023/01/14 11:48:28;;;;;;;1.48;1.30;;;;;;;9.41;92.40;100055.69;5003540;28;20033;-91
2023/01/14 11:51:04;;;;;;;4.57;1.70;;;;;;;9.38;92.22;100026.84;5003426;28;20037;-91
2023/01/14 11:53:43;;;;;;;1.30;1.00;;;;;;;9.44;92.91;100033.59;5021864;28;20081;-92
2023/01/14 11:56:15;;;;;;;2.72;1.30;;;;;;;9.47;94.02;100051.94;5020144;28;20026;-92
2023/01/14 11:58:40;;;;;;;;;;;;;;;9.58;93.77;100040.84;5009549;28;20033;-92
2023/01/14 12:01:22;;;;;;;1.08;0.95;;;;;;;9.50;93.71;100019.25;5027774;28;19913;-91
2023/01/14 12:04:03;;;;;;;2.13;1.48;;;;;;;9.51;93.35;100013.03;5005368;28;20151;-92
2023/01/14 12:06:59;;;;;;;3.80;1.05;;;;;;;9.66;92.49;100005.22;4990220;28;20032;-92
2023/01/14 12:09:38;;;;;;;4.43;1.05;;;;;;;9.54;92.82;100002.34;5022523;28;20091;-92
2023/01/14 12:12:20;;;;;;;3.90;0.95;;;;;;;9.52;93.08;99996.28;5027007;28;20025;-92